Time;durP1;ratioP1;P1;durP2;ratioP2;P2;SDS_P1;SDS_P2;PMS_P1;PMS_P2;Temp;Humidity;BMP_temperature;BMP_pressure;BME280_temperature;BME280_humidity;BME280_pressure;Samples;Min_cycle;Max_cycle;Signal;HPM_P1;HPM_P2
2021/10/29 00:01:31;;;;;;;25.70;20.17;;;2.80;99.90;2.10;97364.00;;;;5106667;28;20441;-71
2021/10/29 00:04:20;;;;;;;29.07;19.83;;;2.80;99.90;2.10;97367.00;;;;5107915;27;20429;-73
2021/10/29 00:07:09;;;;;;;30.57;20.63;;;2.80;99.90;2.00;97362.00;;;;5107473;28;20425;-73
2021/10/29 00:10:00;;;;;;;27.03;18.93;;;2.80;99.90;2.00;97354.00;;;;5111138;27;20424;-72
2021/10/29 00:12:49;;;;;;;27.73;21.97;;;2.80;99.90;1.90;97355.00;;;;5125166;27;20444;-72
2021/10/29 00:15:38;;;;;;;29.00;21.47;;;2.70;99.90;1.80;97358.00;;;;5108119;28;20424;-72
2021/10/29 00:18:27;;;;;;;26.53;19.90;;;2.70;99.90;1.60;97351.00;;;;5107525;28;20467;-72
2021/10/29 00:21:17;;;;;;;33.80;21.27;;;2.60;99.90;1.50;97353.00;;;;5106311;28;20445;-73
2021/10/29 00:24:06;;;;;;;27.87;20.27;;;2.50;99.90;1.70;97355.00;;;;5108481;27;20474;-73
2021/10/29 00:26:56;;;;;;;33.20;23.27;;;2.40;99.90;1.90;97345.00;;;;5106511;28;20413;-73
2021/10/29 00:29:45;;;;;;;31.50;20.43;;;2.50;99.90;1.90;97354.00;;;;5106376;28;20425;-72
2021/10/29 00:32:34;;;;;;;33.80;23.93;;;2.50;99.90;2.00;97355.00;;;;5107411;28;20437;-72
2021/10/29 00:35:23;;;;;;;28.83;23.20;;;2.50;99.90;2.00;97357.00;;;;5105901;28;20425;-72
2021/10/29 00:38:12;;;;;;;30.73;22.23;;;2.60;99.90;2.00;97345.00;;;;5106143;28;20828;-72
2021/10/29 00:41:00;;;;;;;30.67;23.33;;;2.60;99.90;1.90;97344.00;;;;5106039;28;20445;-72
2021/10/29 00:43:51;;;;;;;31.57;23.27;;;2.60;99.90;2.00;97356.00;;;;5107717;28;20432;-73
2021/10/29 00:46:39;;;;;;;32.73;22.63;;;2.60;99.90;1.90;97347.00;;;;5106311;28;20421;-72
2021/10/29 00:49:28;;;;;;;33.13;23.57;;;2.60;99.90;1.80;97337.00;;;;5107344;28;20444;-72
2021/10/29 00:52:17;;;;;;;33.43;24.17;;;2.60;99.90;1.60;97337.00;;;;5105735;28;20441;-72
2021/10/29 00:55:07;;;;;;;27.23;21.53;;;2.50;99.90;1.70;97335.00;;;;5105612;28;20432;-72
2021/10/29 00:57:56;;;;;;;33.93;23.67;;;2.50;99.90;1.80;97347.00;;;;5106409;28;20428;-72
2021/10/29 01:00:46;;;;;;;36.37;22.33;;;2.50;99.90;1.70;97332.00;;;;5106477;28;20425;-72
2021/10/29 01:03:38;;;;;;;34.23;23.77;;;2.50;99.90;1.50;97336.00;;;;5112407;27;20419;-71
2021/10/29 01:06:28;;;;;;;29.43;22.53;;;2.40;99.90;1.20;97325.00;;;;5110803;27;20791;-71
2021/10/29 01:09:17;;;;;;;31.20;22.50;;;2.30;99.90;1.30;97318.00;;;;5105140;28;20421;-71
2021/10/29 01:12:06;;;;;;;32.60;23.17;;;2.20;99.90;1.40;97314.00;;;;5106947;28;20817;-72
2021/10/29 01:14:56;;;;;;;30.70;21.20;;;2.20;99.90;1.40;97313.00;;;;5106160;28;20428;-71
2021/10/29 01:17:46;;;;;;;32.20;21.63;;;2.20;99.90;1.30;97309.00;;;;5120137;27;20419;-71
2021/10/29 01:20:36;;;;;;;26.83;20.23;;;2.20;99.90;1.40;97308.00;;;;5104978;28;20427;-72
2021/10/29 01:23:25;;;;;;;31.97;23.40;;;2.20;99.90;1.40;97314.00;;;;5107040;28;20790;-73
2021/10/29 01:26:17;;;;;;;39.57;25.47;;;2.20;99.90;1.60;97317.00;;;;5107540;27;20801;-72
2021/10/29 01:29:06;;;;;;;28.57;21.90;;;2.30;99.90;1.70;97305.00;;;;5106132;28;20470;-72
2021/10/29 01:31:55;;;;;;;33.33;23.00;;;2.30;99.90;1.60;97308.00;;;;5106605;28;20934;-72
2021/10/29 01:34:44;;;;;;;30.03;23.17;;;2.30;99.90;1.70;97311.00;;;;5105631;28;20424;-71
2021/10/29 01:37:38;;;;;;;32.53;21.83;;;2.40;99.90;1.70;97306.00;;;;5106617;28;20425;-72
2021/10/29 01:40:26;;;;;;;32.27;22.97;;;2.40;99.90;1.80;97300.00;;;;5105053;28;20460;-71
2021/10/29 01:43:15;;;;;;;34.93;24.10;;;2.50;99.90;1.80;97290.00;;;;5105672;28;20424;-71
2021/10/29 01:46:04;;;;;;;29.90;21.80;;;3.40;99.90;1.60;97285.00;;;;5105723;28;20420;-73
2021/10/29 01:48:54;;;;;;;30.97;21.70;;;2.40;99.90;1.50;97296.00;;;;5106011;28;20429;-71
2021/10/29 01:51:43;;;;;;;30.63;23.27;;;2.40;99.90;1.50;97282.00;;;;5105029;28;21001;-71
2021/10/29 01:54:33;;;;;;;33.53;22.93;;;2.30;99.90;1.50;97294.00;;;;5105667;28;20409;-72
2021/10/29 01:57:22;;;;;;;34.50;23.53;;;2.30;99.90;1.80;97289.00;;;;5110776;27;20443;-73
2021/10/29 02:00:12;;;;;;;30.47;22.83;;;2.30;99.90;2.00;97281.00;;;;5109899;27;20476;-73
2021/10/29 02:03:01;;;;;;;38.10;25.37;;;2.50;99.90;1.90;97274.00;;;;5106588;28;20437;-73
2021/10/29 02:05:51;;;;;;;38.00;25.10;;;2.50;99.90;2.00;97283.00;;;;5105180;28;20567;-72
2021/10/29 02:08:40;;;;;;;37.50;25.00;;;2.60;99.90;2.00;97283.00;;;;5106125;28;20424;-72
2021/10/29 02:11:30;;;;;;;33.50;24.63;;;2.60;99.90;2.10;97279.00;;;;5106610;28;20444;-72
2021/10/29 02:14:19;;;;;;;30.53;22.40;;;2.70;99.90;2.20;97281.00;;;;5105023;28;20417;-72
2021/10/29 02:17:08;;;;;;;37.60;23.57;;;2.70;99.90;2.10;97274.00;;;;5107077;28;21045;-72
2021/10/29 02:19:57;;;;;;;33.83;23.87;;;2.70;99.90;2.10;97275.00;;;;5106169;28;20456;-72
2021/10/29 02:22:45;;;;;;;32.03;22.53;;;2.70;99.90;2.10;97271.00;;;;5106155;28;20441;-72
2021/10/29 02:25:34;;;;;;;34.33;23.53;;;2.70;99.90;2.20;97263.00;;;;5107421;28;20436;-71
2021/10/29 02:28:25;;;;;;;35.57;23.83;;;2.70;99.90;2.20;97254.00;;;;5106305;28;20454;-72
2021/10/29 02:31:13;;;;;;;34.27;23.97;;;2.70;99.90;2.20;97263.00;;;;5104838;28;20444;-71
2021/10/29 02:34:02;;;;;;;30.80;23.53;;;2.80;99.90;2.30;97281.00;;;;5114508;28;20804;-71
2021/10/29 02:36:51;;;;;;;30.77;22.30;;;2.80;99.90;2.30;97262.00;;;;5123353;28;20443;-73
2021/10/29 02:39:40;;;;;;;30.43;21.33;;;2.80;99.90;1.80;97269.00;;;;5106889;28;20460;-72
2021/10/29 02:42:29;;;;;;;37.87;22.80;;;2.80;99.90;2.00;97258.00;;;;5119363;28;20969;-73
2021/10/29 02:45:20;;;;;;;34.13;22.90;;;2.70;99.90;2.20;97277.00;;;;5105930;28;20432;-73
2021/10/29 02:48:09;;;;;;;31.20;23.67;;;2.80;99.90;2.20;97254.00;;;;5105982;28;20421;-72
2021/10/29 02:50:57;;;;;;;30.63;23.37;;;2.70;99.90;2.30;97261.00;;;;5117880;28;20444;-72
2021/10/29 02:53:46;;;;;;;34.23;24.53;;;2.80;99.90;2.50;97259.00;;;;5118111;28;20428;-72
2021/10/29 02:56:35;;;;;;;36.33;24.97;;;2.90;99.90;2.60;97261.00;;;;5103584;28;20440;-72
2021/10/29 02:59:24;;;;;;;39.13;25.30;;;2.90;99.90;2.70;97253.00;;;;5103238;28;20479;-72
2021/10/29 03:02:14;;;;;;;35.60;25.30;;;3.00;99.90;2.80;97257.00;;;;5104525;28;20826;-72
2021/10/29 03:05:05;;;;;;;32.73;22.40;;;3.10;99.90;2.80;97260.00;;;;5104250;28;20515;-72
2021/10/29 03:07:55;;;;;;;33.60;23.97;;;3.20;99.90;2.80;97241.00;;;;5105446;28;20447;-72
2021/10/29 03:10:45;;;;;;;34.27;24.40;;;3.30;99.90;2.80;97244.00;;;;5105431;28;20432;-72
2021/10/29 03:13:34;;;;;;;36.07;24.57;;;3.30;99.90;2.70;97245.00;;;;5104777;28;20436;-73
2021/10/29 03:16:22;;;;;;;33.87;23.57;;;3.30;99.90;2.70;97246.00;;;;5103764;28;20421;-72
2021/10/29 03:19:13;;;;;;;33.70;23.57;;;3.30;99.90;2.50;97238.00;;;;5104202;28;20425;-73
2021/10/29 03:22:01;;;;;;;33.40;23.03;;;3.30;99.90;2.50;97246.00;;;;5104339;28;20451;-71
2021/10/29 03:24:50;;;;;;;30.53;21.63;;;3.20;99.90;2.40;97243.00;;;;5105772;28;20454;-71
2021/10/29 03:27:39;;;;;;;34.13;23.87;;;3.20;99.90;2.40;97246.00;;;;5105365;28;20432;-70
2021/10/29 03:30:28;;;;;;;38.27;25.87;;;3.20;99.90;2.60;97247.00;;;;5104254;28;20436;-71
2021/10/29 03:33:17;;;;;;;48.60;28.07;;;3.20;99.90;2.70;97246.00;;;;5108231;28;20416;-71
2021/10/29 03:36:08;;;;;;;38.70;26.10;;;3.20;99.90;2.70;97239.00;;;;5108583;28;20465;-71
2021/10/29 03:38:59;;;;;;;34.83;24.40;;;3.20;99.90;2.80;97247.00;;;;5110920;27;20423;-73
2021/10/29 03:41:53;;;;;;;33.13;24.93;;;3.30;99.90;2.90;97235.00;;;;5124397;27;20440;-72
2021/10/29 03:44:48;;;;;;;39.23;25.90;;;3.30;99.90;2.90;97246.00;;;;5114445;27;20435;-73
2021/10/29 03:47:42;;;;;;;35.07;24.47;;;3.40;99.90;3.00;97240.00;;;;5109356;28;20462;-73
2021/10/29 03:50:34;;;;;;;37.53;26.30;;;3.50;99.90;3.00;97240.00;;;;5106809;28;20425;-72
2021/10/29 03:53:32;;;;;;;35.60;25.70;;;3.50;99.90;3.00;97235.00;;;;5108719;28;20436;-72
2021/10/29 03:56:22;;;;;;;38.63;23.23;;;3.60;99.90;2.70;97235.00;;;;5106990;28;20426;-72
2021/10/29 03:59:11;;;;;;;31.60;22.40;;;3.50;99.90;2.60;97244.00;;;;5107491;28;20428;-72
2021/10/29 04:02:00;;;;;;;32.10;21.70;;;3.40;99.90;2.50;97229.00;;;;5108111;28;20448;-72
2021/10/29 04:04:49;;;;;;;37.93;24.07;;;3.40;99.90;2.70;97239.00;;;;5107800;28;20817;-72
2021/10/29 04:07:37;;;;;;;35.43;24.87;;;3.40;99.90;2.90;97233.00;;;;5107157;28;20409;-71
2021/10/29 04:10:30;;;;;;;34.73;24.53;;;3.40;99.90;2.90;97247.00;;;;5107332;28;20432;-72
2021/10/29 04:13:19;;;;;;;36.17;23.23;;;3.50;99.90;2.80;97229.00;;;;5113169;27;20432;-72
2021/10/29 04:16:08;;;;;;;32.07;22.57;;;3.50;99.90;2.50;97234.00;;;;5115325;27;20429;-72
2021/10/29 04:18:56;;;;;;;35.17;23.53;;;3.40;99.90;2.60;97240.00;;;;5128129;27;20427;-73
2021/10/29 04:21:45;;;;;;;32.73;22.13;;;3.30;99.90;2.60;97239.00;;;;5108172;28;20842;-72
2021/10/29 04:24:34;;;;;;;35.60;23.90;;;3.30;99.90;2.50;97237.00;;;;5108264;27;20452;-72
2021/10/29 04:27:30;;;;;;;33.10;24.03;;;3.30;99.90;2.80;97228.00;;;;5108001;28;20447;-71
2021/10/29 04:30:21;;;;;;;34.00;22.90;;;3.30;99.90;2.90;97239.00;;;;5107778;28;20425;-71
2021/10/29 04:33:10;;;;;;;37.90;26.90;;;3.40;99.90;2.90;97239.00;;;;5108145;28;20928;-70
2021/10/29 04:36:00;;;;;;;37.13;24.93;;;3.50;99.90;3.10;97244.00;;;;5107248;28;20413;-72
2021/10/29 04:38:50;;;;;;;40.30;23.80;;;3.50;99.90;3.00;97239.00;;;;5107650;28;20428;-72
2021/10/29 04:41:39;;;;;;;36.93;25.10;;;3.60;99.90;3.00;97249.00;;;;5106508;28;20464;-71
2021/10/29 04:44:29;;;;;;;43.30;25.90;;;3.60;99.90;3.10;97244.00;;;;5107250;28;20420;-71
2021/10/29 04:47:18;;;;;;;37.17;25.07;;;3.60;99.90;3.10;97244.00;;;;5107437;28;20424;-71
2021/10/29 04:50:08;;;;;;;43.07;27.53;;;3.60;99.90;3.20;97237.00;;;;5106090;28;20424;-71
2021/10/29 04:52:58;;;;;;;42.77;28.07;;;3.60;99.90;3.10;97233.00;;;;5107030;28;20465;-71
2021/10/29 04:55:47;;;;;;;40.80;27.50;;;3.70;99.90;3.10;97234.00;;;;5114217;27;20416;-71
2021/10/29 04:58:36;;;;;;;35.57;24.10;;;3.70;99.90;3.20;97225.00;;;;5110395;27;20415;-71
2021/10/29 05:01:26;;;;;;;37.80;23.60;;;3.70;99.90;3.10;97221.00;;;;5106752;28;20847;-72
2021/10/29 05:04:18;;;;;;;35.97;24.83;;;3.70;99.90;3.20;97223.00;;;;5106018;27;20420;-72
2021/10/29 05:07:07;;;;;;;36.87;24.37;;;3.70;99.90;3.40;97224.00;;;;5124337;27;20823;-72
2021/10/29 05:09:56;;;;;;;43.83;26.00;;;3.80;99.90;3.40;97227.00;;;;5109540;27;20431;-72
2021/10/29 05:12:47;;;;;;;38.77;25.00;;;3.80;99.90;3.60;97222.00;;;;5125158;27;20953;-72
2021/10/29 05:15:36;;;;;;;41.67;25.00;;;3.90;99.90;3.60;97219.00;;;;5123528;27;20431;-72
2021/10/29 05:18:26;;;;;;;36.17;24.10;;;4.00;99.90;3.60;97226.00;;;;5123685;27;20412;-72
2021/10/29 05:21:15;;;;;;;36.20;21.97;;;4.10;99.90;3.50;97227.00;;;;5119932;27;20475;-72
2021/10/29 05:24:05;;;;;;;38.00;22.77;;;4.10;99.90;3.20;97222.00;;;;5106623;27;20444;-73
2021/10/29 05:26:53;;;;;;;34.70;22.87;;;4.00;99.90;3.10;97217.00;;;;5107277;28;20433;-72
2021/10/29 05:29:42;;;;;;;36.50;23.50;;;3.90;99.90;3.20;97228.00;;;;5104928;28;20416;-73
2021/10/29 05:32:31;;;;;;;33.53;22.33;;;3.90;99.90;3.30;97227.00;;;;5105983;28;20452;-72
2021/10/29 05:35:21;;;;;;;34.93;23.87;;;3.90;99.90;3.40;97230.00;;;;5105006;28;20424;-73
2021/10/29 05:38:10;;;;;;;35.43;24.03;;;3.90;99.90;3.50;97234.00;;;;5104762;28;20795;-72
2021/10/29 05:41:01;;;;;;;37.03;23.43;;;3.90;99.90;3.50;97234.00;;;;5105315;28;20471;-72
2021/10/29 05:43:49;;;;;;;39.13;25.30;;;4.00;99.90;3.60;97244.00;;;;5105166;28;20425;-72
2021/10/29 05:46:41;;;;;;;35.83;23.90;;;4.00;99.90;3.60;97232.00;;;;5106781;28;20420;-72
2021/10/29 05:49:30;;;;;;;34.07;22.37;;;4.00;99.90;3.60;97245.00;;;;5105928;28;20425;-72
2021/10/29 05:52:21;;;;;;;32.53;22.80;;;4.10;99.90;3.60;97252.00;;;;5105554;28;20849;-73
2021/10/29 05:55:16;;;;;;;39.20;23.70;;;4.10;99.90;3.50;97245.00;;;;5110454;27;20425;-73
2021/10/29 05:58:05;;;;;;;31.53;20.83;;;4.10;99.90;3.60;97247.00;;;;5114707;27;20434;-73
2021/10/29 06:00:54;;;;;;;32.17;20.53;;;4.10;99.90;3.70;97246.00;;;;5104267;28;20464;-73
2021/10/29 06:03:43;;;;;;;29.17;21.17;;;4.10;99.90;3.70;97256.00;;;;5105528;28;20436;-73
2021/10/29 06:06:31;;;;;;;32.10;20.13;;;4.20;99.90;3.80;97262.00;;;;5112844;27;21262;-73
2021/10/29 06:09:21;;;;;;;32.07;22.23;;;4.20;99.90;3.70;97264.00;;;;5103667;28;20424;-73
2021/10/29 06:12:11;;;;;;;37.07;23.40;;;4.30;99.90;3.70;97255.00;;;;5111181;27;20432;-72
2021/10/29 06:14:59;;;;;;;32.43;21.60;;;4.30;99.90;3.80;97265.00;;;;5105074;28;20643;-72
2021/10/29 06:17:48;;;;;;;31.37;20.53;;;4.30;99.90;3.90;97255.00;;;;5117564;27;20212;-73
2021/10/29 06:20:37;;;;;;;32.60;21.23;;;4.40;99.90;3.90;97259.00;;;;5118706;27;20416;-72
2021/10/29 06:23:34;;;;;;;29.27;19.23;;;4.40;99.90;3.90;97258.00;;;;5118379;28;20425;-73
2021/10/29 06:26:24;;;;;;;32.13;21.30;;;4.40;99.90;4.00;97272.00;;;;5122941;28;20209;-71
2021/10/29 06:29:13;;;;;;;35.63;20.27;;;4.50;99.90;4.20;97275.00;;;;5118225;28;20443;-73
2021/10/29 06:32:06;;;;;;;36.93;21.30;;;4.50;99.90;4.30;97266.00;;;;5123582;28;20447;-73
2021/10/29 06:34:54;;;;;;;34.67;22.67;;;4.60;99.90;4.40;97269.00;;;;5125162;28;20802;-71
2021/10/29 06:37:43;;;;;;;26.70;18.43;;;4.70;99.90;4.50;97280.00;;;;5126125;28;20819;-71
2021/10/29 06:40:38;;;;;;;30.27;20.50;;;4.80;99.90;4.60;97276.00;;;;5108426;28;20221;-74
2021/10/29 06:43:31;;;;;;;29.23;18.17;;;4.90;99.90;4.80;97276.00;;;;5107476;28;20194;-72
2021/10/29 06:46:28;;;;;;;30.63;20.83;;;4.90;99.90;4.90;97279.00;;;;5117521;28;20216;-72
2021/10/29 06:49:21;;;;;;;37.50;20.47;;;5.10;99.90;5.00;97280.00;;;;5111067;28;20632;-74
2021/10/29 06:52:30;;;;;;;30.80;19.87;;;5.10;99.90;5.00;97277.00;;;;5116970;28;20239;-73
2021/10/29 07:01:45;;;;;;;25.50;18.63;;;5.30;99.90;5.20;97303.00;;;;5112958;28;20619;-73
2021/10/29 07:41:50;;;;;;;22.60;15.57;;;5.90;99.90;5.70;97296.00;;;;5119733;27;20636;-74
2021/10/29 07:44:42;;;;;;;23.03;15.60;;;6.00;99.90;5.80;97293.00;;;;5114066;27;20198;-70
2021/10/29 07:47:31;;;;;;;24.57;16.03;;;6.00;99.90;5.80;97304.00;;;;5126000;27;20201;-73
2021/10/29 07:50:21;;;;;;;23.80;15.33;;;6.00;99.90;5.80;97303.00;;;;5121990;27;20689;-72
2021/10/29 07:53:10;;;;;;;25.90;14.97;;;6.10;99.90;5.80;97305.00;;;;5119807;27;20192;-74
2021/10/29 07:55:59;;;;;;;26.43;15.97;;;6.20;99.90;5.80;97307.00;;;;5114322;27;20214;-72
2021/10/29 07:58:48;;;;;;;22.87;16.17;;;6.20;99.90;6.10;97306.00;;;;5120237;27;20234;-74
2021/10/29 08:01:39;;;;;;;29.77;16.70;;;6.20;99.90;6.30;97302.00;;;;5122196;27;20222;-73
2021/10/29 08:04:29;;;;;;;28.40;18.10;;;6.10;99.90;6.50;97298.00;;;;5111838;27;20247;-72
2021/10/29 08:07:19;;;;;;;26.77;18.17;;;6.40;99.90;6.60;97306.00;;;;5112748;27;20202;-72
2021/10/29 08:10:10;;;;;;;26.17;17.80;;;6.50;99.90;6.50;97302.00;;;;5118973;27;20582;-72
2021/10/29 08:13:02;;;;;;;28.63;20.20;;;6.70;99.90;6.50;97299.00;;;;5120846;27;20213;-73
2021/10/29 08:15:57;;;;;;;32.73;18.83;;;6.70;99.90;6.40;97299.00;;;;5111783;27;20508;-74
2021/10/29 08:18:48;;;;;;;26.20;16.87;;;6.80;99.90;6.70;97303.00;;;;5112120;27;20190;-74
2021/10/29 08:21:37;;;;;;;31.67;20.30;;;6.80;99.90;6.90;97301.00;;;;5116509;27;20218;-74
2021/10/29 08:24:28;;;;;;;33.20;18.90;;;6.90;99.90;7.00;97294.00;;;;5120633;27;20198;-72
2021/10/29 08:27:17;;;;;;;31.27;21.37;;;7.00;99.90;6.90;97298.00;;;;5115592;27;20676;-72
2021/10/29 08:30:09;;;;;;;26.57;19.57;;;7.00;99.90;7.10;97300.00;;;;5112347;27;20203;-73
2021/10/29 08:32:58;;;;;;;29.97;18.83;;;7.10;99.90;7.20;97298.00;;;;5121854;27;20831;-72
2021/10/29 08:35:48;;;;;;;28.03;20.17;;;7.20;99.90;7.30;97303.00;;;;5123681;27;20209;-74
2021/10/29 08:38:38;;;;;;;35.37;22.37;;;7.30;99.90;7.20;97299.00;;;;5117293;27;20198;-74
2021/10/29 08:41:43;;;;;;;29.43;20.13;;;7.30;99.90;7.40;97306.00;;;;5116999;27;20211;-73
2021/10/29 08:44:33;;;;;;;28.53;19.73;;;7.40;99.90;7.50;97301.00;;;;5109128;27;20209;-73
2021/10/29 08:47:24;;;;;;;30.03;19.73;;;7.40;99.90;7.50;97303.00;;;;5120973;27;20197;-74
2021/10/29 08:50:16;;;;;;;30.53;20.23;;;7.50;99.90;7.50;97302.00;;;;5126631;27;20190;-73
2021/10/29 08:53:07;;;;;;;29.90;17.80;;;7.60;99.90;7.60;97303.00;;;;5117605;27;20209;-73
2021/10/29 08:56:01;;;;;;;31.17;19.47;;;7.60;99.90;7.60;97294.00;;;;5116113;27;20577;-71
2021/10/29 08:59:13;;;;;;;29.37;18.77;;;7.60;99.90;7.70;97296.00;;;;5106712;27;20210;-72
2021/10/29 09:02:07;;;;;;;27.10;17.33;;;7.70;99.90;7.70;97296.00;;;;5118794;27;20218;-72
2021/10/29 09:05:06;;;;;;;28.73;18.43;;;7.80;99.90;7.90;97281.00;;;;5125674;27;20574;-71
2021/10/29 09:08:14;;;;;;;28.67;18.10;;;7.40;99.90;8.00;97282.00;;;;5111139;27;20202;-73
2021/10/29 09:11:34;;;;;;;27.23;18.23;;;7.90;99.90;7.80;97274.00;;;;5117521;27;20783;-74
2021/10/29 09:17:47;;;;;;;28.23;19.07;;;8.00;99.90;7.80;97268.00;;;;5121066;27;20202;-75
2021/10/29 09:33:17;;;;;;;26.90;17.20;;;8.10;99.90;8.30;97272.00;;;;5053420;27;20201;-75
2021/10/29 09:36:24;;;;;;;24.37;16.93;;;8.20;99.90;8.50;97273.00;;;;5123281;27;20597;-74
2021/10/29 09:39:17;;;;;;;23.57;17.07;;;8.30;99.90;8.40;97262.00;;;;5115711;27;20201;-74
2021/10/29 09:42:12;;;;;;;25.00;17.60;;;8.40;99.90;8.70;97260.00;;;;5124085;27;20735;-75
2021/10/29 09:45:14;;;;;;;25.80;17.30;;;8.50;99.90;8.70;97254.00;;;;5114456;27;20707;-75
2021/10/29 09:48:15;;;;;;;22.97;15.37;;;8.70;99.90;8.90;97246.00;;;;5117953;27;20212;-75
2021/10/29 09:51:08;;;;;;;24.00;16.50;;;8.80;99.90;9.10;97242.00;;;;5116199;27;20223;-75
2021/10/29 09:54:11;;;;;;;24.83;17.33;;;8.90;99.90;9.30;97245.00;;;;5125031;27;20213;-75
2021/10/29 09:57:01;;;;;;;21.83;15.73;;;9.10;99.90;9.30;97231.00;;;;5112579;27;20575;-74
2021/10/29 09:59:54;;;;;;;20.97;14.83;;;9.20;99.90;9.50;97234.00;;;;5119881;27;20201;-75
2021/10/29 10:02:46;;;;;;;19.60;14.77;;;9.40;99.90;9.90;97236.00;;;;5122997;27;20228;-74
2021/10/29 10:05:35;;;;;;;20.93;15.73;;;9.50;99.90;10.50;97232.00;;;;5112267;27;20681;-74
2021/10/29 10:08:28;;;;;;;20.67;15.13;;;9.80;99.90;10.20;97234.00;;;;5127004;27;20202;-75
2021/10/29 10:11:18;;;;;;;22.77;15.27;;;10.10;99.90;10.80;97232.00;;;;5116045;27;20217;-74
2021/10/29 10:14:10;;;;;;;25.17;17.00;;;10.40;99.90;9.60;97211.00;;;;5116390;27;20669;-75
2021/10/29 10:16:59;;;;;;;22.87;16.80;;;10.60;99.90;10.00;97216.00;;;;5116699;27;20208;-75
2021/10/29 10:19:50;;;;;;;19.57;15.33;;;10.60;99.90;10.00;97214.00;;;;5117454;27;20207;-75
2021/10/29 10:22:43;;;;;;;25.50;14.47;;;10.60;99.90;10.20;97216.00;;;;5108971;27;20232;-75
2021/10/29 10:25:41;;;;;;;;;;;10.80;99.90;11.60;97213.00;;;;5111051;27;20038;-75
2021/10/29 10:28:54;;;;;;;;;;;11.10;99.90;11.90;97212.00;;;;5113849;28;19924;-74
2021/10/29 10:42:06;;;;;;;24.23;14.83;;;13.20;99.90;13.80;97190.00;;;;5096569;27;20519;-74
2021/10/29 10:45:04;;;;;;;18.17;13.60;;;13.60;99.90;14.00;97177.00;;;;5116650;27;20584;-75
2021/10/29 10:47:59;;;;;;;17.30;14.03;;;13.90;99.90;13.90;97182.00;;;;5118465;27;20194;-75
2021/10/29 10:50:51;;;;;;;17.43;13.37;;;14.20;99.90;13.70;97171.00;;;;5109695;27;20218;-74
2021/10/29 10:53:48;;;;;;;14.83;12.90;;;14.40;99.90;14.60;97167.00;;;;5120679;27;20198;-75
2021/10/29 11:00:17;;;;;;;17.87;14.60;;;15.10;99.90;14.60;97165.00;;;;5101120;27;20209;-75
2021/10/29 11:07:06;;;;;;;17.30;14.07;;;15.40;99.90;16.10;97167.00;;;;5123692;27;20190;-75
2021/10/29 11:10:04;;;;;;;18.37;12.53;;;15.80;99.90;15.80;97159.00;;;;5110018;27;20202;-76
2021/10/29 11:13:11;;;;;;;14.90;12.43;;;16.20;98.50;16.60;97152.00;;;;5116623;27;20225;-75
2021/10/29 11:16:03;;;;;;;17.40;12.67;;;16.50;98.70;16.90;97151.00;;;;5112741;27;20206;-75
2021/10/29 11:18:56;;;;;;;18.13;15.05;;;16.80;97.70;17.50;97152.00;;;;5125512;27;20389;-75
2021/10/29 11:21:51;;;;;;;20.23;16.40;;;17.20;96.10;17.80;97146.00;;;;5115287;27;20395;-76
2021/10/29 11:24:42;;;;;;;19.73;17.63;;;17.40;95.30;17.70;97145.00;;;;5110244;27;20853;-75
2021/10/29 11:27:32;;;;;;;20.08;17.98;;;17.50;93.60;17.60;97138.00;;;;5129354;27;20382;-76
2021/10/29 11:30:21;;;;;;;24.60;18.70;;;17.50;92.40;17.40;97142.00;;;;5122560;27;20585;-76
2021/10/29 11:33:11;;;;;;;25.47;18.30;;;17.50;91.80;17.60;97130.00;;;;5119672;27;20194;-76
2021/10/29 11:36:05;;;;;;;22.83;17.80;;;17.50;90.90;18.20;97127.00;;;;5123284;27;20202;-76
2021/10/29 11:38:56;;;;;;;21.33;18.97;;;17.70;90.50;17.70;97118.00;;;;5121464;27;20213;-77
2021/10/29 11:41:47;;;;;;;20.27;18.00;;;18.00;87.00;18.60;97122.00;;;;5110683;27;20218;-76
2021/10/29 11:44:40;;;;;;;25.67;17.47;;;18.30;86.60;18.70;97123.00;;;;5113911;27;20221;-76
2021/10/29 11:47:31;;;;;;;20.43;18.17;;;18.70;86.60;16.10;97106.00;;;;5118492;27;20240;-75
2021/10/29 11:50:20;;;;;;;22.37;18.77;;;19.00;78.50;17.10;97108.00;;;;5115044;27;20582;-75
2021/10/29 11:53:12;;;;;;;25.70;20.13;;;18.80;79.50;18.10;97115.00;;;;5125126;27;20197;-76
2021/10/29 11:56:04;;;;;;;22.43;17.83;;;18.70;80.30;18.60;97107.00;;;;5118553;27;20202;-76
2021/10/29 11:59:09;;;;;;;24.57;19.13;;;18.70;80.90;18.90;97104.00;;;;5127756;27;20203;-76
2021/10/29 12:05:46;;;;;;;24.53;19.77;;;18.70;80.10;19.20;97100.00;;;;5120911;27;20587;-75
2021/10/29 12:08:23;;;;;;;23.40;20.13;;;19.30;77.90;18.30;97082.00;;;;5111031;27;20202;-76
2021/10/29 12:11:11;;;;;;;23.57;19.23;;;20.00;73.50;19.40;97086.00;;;;5121414;27;20242;-75
2021/10/29 12:14:03;;;;;;;24.17;20.07;;;20.10;72.80;19.10;97079.00;;;;5114136;27;20235;-76
2021/10/29 12:16:55;;;;;;;23.73;18.60;;;20.10;73.20;20.20;97083.00;;;;5126457;27;20246;-75
2021/10/29 12:19:47;;;;;;;28.07;20.70;;;20.20;72.90;20.20;97070.00;;;;5125924;27;21175;-75
2021/10/29 12:22:40;;;;;;;25.90;22.47;;;20.30;71.40;19.90;97071.00;;;;5116736;27;20221;-76
2021/10/29 12:25:38;;;;;;;23.37;20.90;;;20.40;70.00;20.10;97066.00;;;;5111729;27;20226;-75
2021/10/29 12:28:30;;;;;;;22.80;20.40;;;20.50;69.90;20.90;97076.00;;;;5113540;27;20502;-76
2021/10/29 12:31:31;;;;;;;23.73;20.50;;;20.70;69.40;21.50;97069.00;;;;5114678;27;20226;-76
2021/10/29 12:34:44;;;;;;;25.90;21.73;;;21.20;67.80;21.70;97071.00;;;;5109447;27;20711;-76
2021/10/29 12:53:30;;;;;;;27.27;21.17;;;22.20;61.20;22.50;97050.00;;;;5112638;27;20199;-76
2021/10/29 13:02:42;;;;;;;22.80;20.37;;;22.80;58.90;22.60;97042.00;;;;5114488;27;20248;-77
2021/10/29 13:05:30;;;;;;;24.87;21.67;;;22.90;58.40;23.10;97039.00;;;;5111902;27;20678;-75
2021/10/29 13:08:21;;;;;;;24.67;21.98;;;23.00;57.80;22.80;97036.00;;;;5121475;27;20204;-77
2021/10/29 13:11:15;;;;;;;25.40;21.87;;;23.10;57.50;22.70;97042.00;;;;5127118;27;20228;-76
2021/10/29 13:14:07;;;;;;;22.83;20.33;;;23.10;57.50;22.30;97042.00;;;;5116284;27;20223;-77
2021/10/29 13:16:58;;;;;;;26.03;21.57;;;22.90;57.00;22.60;97042.00;;;;5115963;27;20587;-77
2021/10/29 13:23:17;;;;;;;22.80;20.47;;;22.70;57.20;22.60;97039.00;;;;5097669;27;20223;-79
2021/10/29 13:26:44;;;;;;;23.73;21.13;;;22.70;56.80;22.40;97033.00;;;;5127447;27;20196;-81
2021/10/29 13:36:02;;;;;;;22.67;20.37;;;22.80;56.20;22.30;97037.00;;;;5104514;28;20884;-75
2021/10/29 13:51:33;;;;;;;28.77;21.23;;;22.00;56.80;20.80;97027.00;;;;5105572;28;20224;-75
2021/10/29 13:54:32;;;;;;;25.00;21.40;;;21.80;56.30;21.50;97029.00;;;;5112918;27;20227;-75
2021/10/29 14:04:07;;;;;;;26.07;22.87;;;21.80;57.20;20.80;97037.00;;;;5116206;27;20910;-75
2021/10/29 14:29:10;;;;;;;28.27;22.87;;;20.40;58.40;19.70;97050.00;;;;5106574;28;20210;-75
2021/10/29 14:32:05;;;;;;;23.93;20.27;;;20.30;58.80;19.80;97054.00;;;;5116188;28;20215;-75
2021/10/29 14:34:57;;;;;;;27.00;22.97;;;20.20;59.20;19.20;97058.00;;;;5105252;28;20214;-75
2021/10/29 14:37:56;;;;;;;22.77;20.40;;;20.10;59.40;17.60;97047.00;;;;5123927;28;20205;-75
2021/10/29 14:40:49;;;;;;;22.23;19.67;;;19.80;59.90;17.30;97048.00;;;;5115029;28;20202;-75
2021/10/29 14:43:42;;;;;;;22.50;20.10;;;19.20;62.20;16.90;97042.00;;;;5117767;28;20205;-75
2021/10/29 14:46:47;;;;;;;23.17;20.60;;;18.70;63.30;16.80;97047.00;;;;5106797;28;20240;-75
2021/10/29 14:49:54;;;;;;;26.27;20.50;;;18.30;64.40;16.50;97046.00;;;;5104305;28;20268;-75
2021/10/29 15:15:20;;;;;;;28.20;20.97;;;13.00;83.50;10.80;97077.00;;;;5111749;28;20594;-75
2021/10/29 15:18:24;;;;;;;28.33;21.50;;;12.40;87.90;10.20;97074.00;;;;5113917;28;20569;-75
2021/10/29 15:27:47;;;;;;;25.60;20.47;;;10.70;96.40;9.70;97076.00;;;;5087244;27;20282;-74
2021/10/29 15:30:41;;;;;;;28.17;21.30;;;10.50;99.90;9.20;97068.00;;;;5125021;27;20653;-74
2021/10/29 15:43:19;;;;;;;28.57;23.00;;;9.50;99.90;8.40;97057.00;;;;5121923;27;20221;-75
2021/10/29 15:46:11;;;;;;;34.43;23.83;;;9.30;99.90;8.20;97058.00;;;;5112657;27;20204;-74
2021/10/29 15:49:04;;;;;;;33.00;21.37;;;9.00;99.90;8.00;97062.00;;;;5128999;27;20631;-74
2021/10/29 15:51:57;;;;;;;30.37;22.50;;;8.80;99.90;7.90;97063.00;;;;5120774;27;20222;-73
2021/10/29 15:54:50;;;;;;;28.33;22.30;;;8.60;99.90;7.50;97067.00;;;;5122813;27;20209;-74